World of Logs combat log analyzer allows gamers to save, share and analyze their raiding experiences conveniently and thoroughly in the Blizzard MMO World of Warcraft. If you're new here, make sure you check out the tour for a 1 minute introduction. If you have any questions, we're happy to answer them on the forums.

DPS HPS
Odyn
Helya
Guarm
Reports for Professor Putricide - statistics
# Date Time Damage DPS Guild Realm
801 23 Jan 2012 05:12 49.80M 159532.0 Schlachtenwüter EU-Zirkel des Cenarius
802 06 Mar 2020 05:12 49.93M 159923.3 Carantina EU-Hellscream
803 18 Mar 2012 05:12 49.80M 159194.0 Third Eye US-Gundrak
804 14 Oct 2011 05:12 49.79M 159095.3 arogantest US-Moonrunner
805 20 Nov 2011 05:12 49.03M 156671.2 PalaHunterZ EU-Nathrezim
806 30 Nov 2010 05:13 49.79M 158982.3 The DMZ EU-Eonar
807 18 Aug 2011 05:13 48.23M 153938.2 Cipher Legion US-Uther
808 30 Nov 2010 05:13 49.79M 158890.5 The DMZ EU-Eonar
809 25 Jul 2010 05:14 49.79M 158561.8 The DMZ EU-Eonar
810 25 Jul 2010 05:14 49.65M 158103.2 The DMZ EU-Eonar
811 30 Oct 2010 05:14 49.82M 158394.2 E X A L T E D US-Aman'Thul
812 24 Jun 2010 05:15 49.81M 158094.6 Erste Liga EU-Azshara
813 04 Sep 2010 05:15 49.79M 157694.1 Redfrex (Casey) US-Bonechewer
814 19 Feb 2011 05:15 49.79M 157672.3 Gank for Cookies EU-Emerald Dream
815 17 Apr 2020 05:16 49.79M 157557.2 Hussars of Bless US-Ragnaros
816 16 Sep 2010 05:16 49.78M 157346.6 Warosia EU-Die Silberne Hand
817 30 Nov 2010 05:16 49.80M 157317.4 Untamed EU-Nagrand
818 27 Mar 2020 05:16 49.89M 157574.4 Shrubb EU-Stormscale
819 27 Apr 2012 05:17 49.85M 156965.1 Engineering Madness US-Drenden
820 20 Mar 2011 05:17 49.80M 156680.6 Schadenfreude US-Uldum
821 11 May 2020 05:18 49.88M 156705.4 Satna EU-Drak'thul
822 01 Dec 2010 05:18 49.79M 156325.7 Computus Demum US-Eonar
823 31 Jan 2011 05:18 49.88M 156544.4 Zygoma EU-The Sha'tar
824 02 Sep 2010 05:18 49.81M 156238.5 Warosia EU-Die Silberne Hand
825 14 Nov 2010 05:19 49.80M 156017.6 Mostly Harmless US-Undermine
826 14 Jun 2010 05:19 49.84M 156097.4 Exiles of Lordaeron US-Stormrage
827 12 May 2020 05:19 49.91M 156149.2 Hussars of Bless US-Ragnaros
828 27 Jun 2010 05:20 49.80M 155564.8 Volcano Legion EU-Neptulon
829 14 Oct 2010 05:20 49.78M 155359.5 Change EU-Malfurion
830 14 Jan 2011 05:20 49.80M 155380.4 Братство духа EU-Галакронд
831 30 Mar 2020 05:20 49.79M 155220.2 Alaynee EU-Illidan
832 22 Apr 2010 05:20 49.84M 155356.2 Whatever US-Mannoroth
833 25 Jul 2012 05:20 49.77M 155098.5 Keyd Team US-Nemesis
834 24 Oct 2010 05:21 49.78M 155005.5 The DMZ EU-Eonar
835 24 Oct 2010 05:21 49.78M 154999.7 The DMZ EU-Eonar
836 20 Jun 2012 05:21 49.81M 155019.0 Linkon's Personal Logs US-Aerie Peak
837 14 Dec 2011 05:21 49.88M 155071.7 Stoneblood US-Zul'jin
838 11 Jul 2010 05:22 49.81M 154576.5 My Other Mount is Tauren US-Aerie Peak
839 27 Oct 2010 05:22 49.75M 154392.1 My Other Mount is Tauren US-Aerie Peak
840 04 Jun 2020 05:22 51.41M 159472.9 Core EU-Archimonde
841 13 Jul 2010 05:22 49.84M 154534.6 Just Me Myself and I US-Stormrage
842 22 Mar 2012 05:22 51.53M 159603.8 Enveloping Shadows US-Lightninghoof
843 18 Mar 2020 05:23 53.97M 166960.0 Utopie EU-Lordaeron
844 18 Mar 2012 05:23 49.80M 154021.5 Namastè US-Sen'jin
845 02 May 2020 05:23 49.80M 153935.9 Hussars of Bless US-Ragnaros
846 19 Jan 2012 05:23 51.38M 158807.4 Disband US-Silvermoon
847 26 Nov 2010 05:23 49.80M 153885.6 Ira Vehementi EU-Malygos
848 03 Aug 2010 05:23 49.62M 153202.1 The DMZ EU-Eonar
849 17 Apr 2011 05:23 49.83M 153820.4 Frak US-Proudmoore
850 03 Aug 2010 05:23 49.79M 153681.4 The DMZ EU-Eonar
851 04 Mar 2011 05:24 49.77M 153492.2 TICKLEFIGHT US-Destromath
852 06 Mar 2018 05:25 49.79M 153144.5 Wicked Ways EU-Ulduar
853 14 Jul 2010 05:25 49.82M 153150.7 My Other Mount is Tauren US-Aerie Peak
854 16 Mar 2012 05:25 50.09M 153891.0 iXera EU-Frostmourne
855 24 May 2020 05:25 54.08M 165951.6 Salty Sailors US-Dark Iron
856 02 Jun 2020 05:25 49.79M 152737.0 Novus Ordo EU-Frostmourne
857 08 Apr 2020 05:26 53.98M 165580.4 Utopie EU-Lordaeron
858 01 Jul 2010 05:26 49.80M 152749.5 Monolith US-Llane
859 02 Dec 2010 05:26 49.84M 152828.4 Reload EU-Crushridge
860 10 Apr 2020 05:26 49.81M 152489.5 DUDEWHEREISMYPPW US-Lightning's Blade
861 11 Aug 2010 05:26 49.78M 152356.6 My Other Mount is Tauren US-Aerie Peak
862 11 Apr 2010 05:26 49.81M 152392.2 Essential Accenture EU-Twilight's Hammer
863 25 Apr 2020 05:26 53.99M 165136.7 crazyguild_12345 EU-Ясеневый лес
864 17 Nov 2010 05:27 49.81M 152179.6 Trivial US-Hyjal
865 03 Oct 2010 05:27 49.79M 152013.0 My Other Mount is Tauren US-Aerie Peak
866 16 Jan 2012 05:27 49.57M 151264.7 Bobs Corporation EU-Archimonde
867 30 May 2020 05:27 49.78M 151909.5 G A R U D A US-Azshara
868 12 Apr 2020 05:27 54.02M 164833.9 Salty Sailors US-Dark Iron
869 10 Oct 2010 05:27 49.82M 151950.5 My Other Mount is Tauren US-Aerie Peak
870 30 Apr 2020 05:27 53.97M 164603.8 Pulp Fiction EU-Lordaeron
871 22 Apr 2020 05:28 53.99M 164453.8 Utopie EU-Lordaeron
872 14 Apr 2020 05:28 54.04M 164607.9 Beer Soul EU-Король-лич
873 01 Apr 2020 05:29 54.00M 164088.2 Utopie EU-Lordaeron
874 24 Feb 2020 05:29 49.86M 151505.7 Hussars of Bless US-Ragnaros
875 29 Apr 2020 05:29 53.96M 163759.6 Utopie EU-Lordaeron
876 23 Mar 2020 05:29 49.78M 151022.0 Hussars of Bless US-Ragnaros
877 03 Jun 2020 05:30 53.99M 163474.7 Utopie EU-Lordaeron
878 05 Dec 2010 05:30 49.77M 150571.3 Skeletor US-Daggerspine
879 15 Jun 2012 05:30 51.37M 155309.1 sergej fährlich EU-Blackrock
880 01 Jun 2020 05:30 54.17M 163756.6 Anathemaci EU-Lordaeron
881 17 Oct 2011 05:30 49.78M 150469.4 S W A T team NL EU-Aerie Peak
882 05 Feb 2012 05:30 49.84M 150625.9 Темплары EU-Черный Шрам
883 21 Apr 2010 05:30 49.76M 150350.2 Reckoning US-Dragonblight
884 17 May 2020 05:30 53.96M 163033.3 Salty Sailors US-Dark Iron
885 09 Jun 2010 05:31 49.84M 150531.9 Just Me Myself and I US-Stormrage
886 21 Mar 2012 05:31 49.80M 150218.7 Streiter der Nordreiche EU-Der Rat von Dalaran
887 18 Feb 2012 05:31 51.40M 155002.0 SolidCore_10twinks EU-Anetheron
888 29 Nov 2010 05:31 49.78M 150092.5 One Thousand DPS Club US-Uldaman
889 25 May 2020 05:31 53.98M 162735.2 DisturbeD EU-Lordaeron
890 15 Oct 2011 05:32 51.34M 154579.0 Epics EU-Nozdormu
891 13 May 2010 05:32 49.80M 149920.1 SonneMondOrden EU-Die Aldor
892 31 May 2020 05:32 53.95M 162406.2 Raidovaci Doupe EU-Lordaeron
893 02 Dec 2011 05:32 49.81M 149940.1 It Will Be Glorious US-Kirin Tor
894 16 Apr 2020 05:32 51.38M 154536.9 ParagonTest EU-Sargeras
895 01 Mar 2010 05:32 49.80M 149717.2 IRON US-Kil'jaeden
896 06 May 2020 05:32 53.94M 162092.6 The Forsaken EU-Dragonblight
897 18 Jul 2010 05:32 49.77M 149547.0 Warosia EU-Die Silberne Hand
898 30 May 2020 05:33 49.86M 149734.3 Novus Ordo EU-Frostmourne
899 30 May 2020 05:33 49.86M 149734.3 Novus Ordo EU-Frostmourne
900 21 Nov 2010 05:33 51.40M 154304.1 Tras ist doof! EU-Frostmourne

Please do not close the page with the ad you want to report.

I've posted a guide on how to report misbehaving ads on the forum. Please follow the instructions and help make the internet a safer place. Thanks for you time.